AirNav   Air Wisconsin Up To $57,000 Bonus
 
 978 users online  

23GE LT Landing Airport
Dublin, Georgia, USA

GOING TO DUBLIN?


FAA INFORMATION EFFECTIVE 25 MARCH 2021

Location

FAA Identifier: 23GE
Lat/Long: 32-22-59.0000N 083-06-00.0000W
32-22.983333N 083-06.000000W
32.3830556,-83.1000000
(estimated)
Elevation: 286 ft. / 87 m (estimated)
From city: 15 miles SW of DUBLIN, GA
Time zone: UTC -4 (UTC -5 during Standard Time)
Zip code: 31019

Airport Operations

Airport use: Private use. Permission required prior to landing
Activation date: 08/2008
Control tower: no
ARTCC: ATLANTA CENTER
FSS: MACON FLIGHT SERVICE STATION
Attendance: IREG
Wind indicator: yes
Segmented circle: no

Airport Communications

WX AWOS-3PT at 48A (9 nm W): 120.975 (478-271-5897)
WX AWOS-3 at EZM (10 nm S): 119.425 (478-374-9979)
WX AWOS-3 at DBN (12 nm NE): 118.425 (478-277-9051)

Nearby radio navigation aids

VOR radial/distance  VOR name  Freq  Var
DBNr237/17.4DUBLIN VORTAC113.1005W
VNAr062/22.6VIENNA VORTAC116.5001E
MCNr123/33.3MACON VORTAC114.2001E

 
NDB name  Hdg/Dist  Freq  Var  ID
CREKE221/7.525104WDB -.. -...
EASTMAN014/15.336604WEZM . --.. --
MC RAE331/20.528003WMQW -- --.- .--
EMANUEL COUNTY249/36.930906WEEX . . -..-
HAZLEHURST329/38.041406WAZE .- --.. .

Airport Services

Runway Information

Runway 14/32

Dimensions: 2000 x 90 ft. / 610 x 27 m
Surface: turf
RUNWAY 14  RUNWAY 32
Traffic pattern: leftleft
Displaced threshold: 450 ft.
RY 14 DSPLCD THLD MARKED WITH ORANGE CONES.
800 ft.
RY 32 DSPLACD THLD MARKED WITH ORANGE CONES.
Obstructions: 35 ft. trees, 150 ft. from runway40 ft. pline, 200 ft. from runway
PLINE MARKED WITH ORANGE BALLS.

Airport Ownership and Management from official FAA records

Ownership: Privately-owned
Owner: JAMES L. WILLIAMS
1099 IVAN BLVD
LABELLE, FL 33935
Phone 863-675-3933
Manager: JAMES L. WILLIAMS
1099 IVAN BLVD
LABELLE, FL 33935
Phone 863-675-3933

Airport Operational Statistics

Aircraft based on the field: 1
Single engine airplanes: 1
    

Additional Remarks

FOR CD CTC ATLANTA APCH AT 678-364-6132, WHEN APCH CLSD CTC ATLANTA ARTCC AT 770-210-7692.

Instrument Procedures

There are no published instrument procedures at 23GE.

Some nearby airports with instrument procedures:

48A - Cochran Airport (9 nm W)
KEZM - Heart of Georgia Regional Airport (10 nm S)
KDBN - W H 'Bud' Barron Airport (12 nm NE)
KMQW - Telfair-Wheeler Airport (20 nm SE)
KWRB - Robins Air Force Base (29 nm NW)
 
Loc | Ops | Rwys | IFR | FBO | Links
Com | Nav | Svcs | Stats | Notes
Aerial photo
No photo
 
Sectional chart

 
Airport distance calculator
Flying to LT Landing Airport? Find the distance to fly.

From to 23GE

Sunrise and sunset
Times for 11-Apr-2021
 Local
(UTC-4)
 Zulu
(UTC)
Morning civil twilight06:4410:44
Sunrise07:0911:09
Sunset19:5823:58
Evening civil twilight20:2300:23

Current date and time
Zulu (UTC)  12-Apr-2021 00:37:46
Local (UTC-4)  11-Apr-2021 20:37:46
 
METAR
K48A 
9nm W 
120015Z AUTO 19004KT 10SM SCT075 20/16 A2966 RMK AO2 T02010157
KEZM 
10nm S 
120015Z AUTO 22004KT 10SM CLR 20/16 A2967 RMK AO2 T02010163
KDBN 
12nm NE 
120015Z AUTO 22003KT 10SM CLR 21/13 A2967 RMK AO2
TAF
KWRB 
28nm NW 
120000Z 1200/1306 VRB06KT 9999 FEW075 QNH2964INS BECMG 1220/1221 29010G15KT 9999 SKC QNH2985INS BECMG 1222/1223 VRB06KT 9999 SKC QNH2987INS TX29/1220Z TN11/1212Z
KMCN 
33nm NW 
111728Z 1118/1218 27008G16KT P6SM SCT035 FM120000 27005KT P6SM SKC FM121000 00000KT P6SM SKC FM121500 29009G15KT P6SM SKC
NOTAMs
Click for the latest NOTAMs
NOTAMs are issued by the DoD/FAA and will open in a separate window not controlled by AirNav.

 

 
 

Would you like to see your business listed on this page?

 If your business provides an interesting product or service to pilots, flight crews, aircraft, or users of the LT Landing Airport, you should consider listing it here.  To start the listing process, click on the button below
 
Add a business
 

Other Pages about LT Landing Airport

Update a link
 
Copyright © AirNav, LLC. All rights reserved. Privacy Policy  Contact